sensor_id;sensor_type;location;lat;lon;timestamp;P1;durP1;ratioP1;P2;durP2;ratioP2
21392;SDS011;10857;52.228;21.026;2022-12-18T09:08:30;71.60;;;25.87;;
21392;SDS011;10857;52.228;21.026;2022-12-18T09:11:00;66.20;;;23.20;;
21392;SDS011;10857;52.228;21.026;2022-12-18T09:13:27;72.27;;;24.10;;
21392;SDS011;10857;52.228;21.026;2022-12-18T09:15:55;72.73;;;23.77;;
21392;SDS011;10857;52.228;21.026;2022-12-18T09:18:23;71.97;;;24.70;;
21392;SDS011;10857;52.228;21.026;2022-12-18T09:20:51;68.27;;;24.10;;
21392;SDS011;10857;52.228;21.026;2022-12-18T09:23:19;68.93;;;24.00;;
21392;SDS011;10857;52.228;21.026;2022-12-18T09:25:47;72.57;;;23.00;;
21392;SDS011;10857;52.228;21.026;2022-12-18T09:28:16;70.70;;;25.53;;
21392;SDS011;10857;52.228;21.026;2022-12-18T09:30:46;67.77;;;23.57;;
21392;SDS011;10857;52.228;21.026;2022-12-18T09:33:14;76.13;;;24.43;;
21392;SDS011;10857;52.228;21.026;2022-12-18T09:35:42;72.40;;;24.23;;
21392;SDS011;10857;52.228;21.026;2022-12-18T09:38:11;67.93;;;24.53;;
21392;SDS011;10857;52.228;21.026;2022-12-18T09:40:43;68.27;;;24.23;;
21392;SDS011;10857;52.228;21.026;2022-12-18T09:43:16;73.40;;;25.83;;
21392;SDS011;10857;52.228;21.026;2022-12-18T09:45:46;80.27;;;26.10;;
21392;SDS011;10857;52.228;21.026;2022-12-18T09:48:25;75.77;;;25.67;;
21392;SDS011;10857;52.228;21.026;2022-12-18T09:50:55;71.57;;;24.93;;
21392;SDS011;10857;52.228;21.026;2022-12-18T09:53:25;75.93;;;27.83;;
21392;SDS011;10857;52.228;21.026;2022-12-18T09:55:53;79.77;;;28.60;;
21392;SDS011;10857;52.228;21.026;2022-12-18T09:58:26;71.93;;;27.80;;
21392;SDS011;10857;52.228;21.026;2022-12-18T10:00:55;82.40;;;27.97;;
21392;SDS011;10857;52.228;21.026;2022-12-18T10:03:22;79.27;;;28.50;;
21392;SDS011;10857;52.228;21.026;2022-12-18T10:05:55;75.67;;;28.30;;
21392;SDS011;10857;52.228;21.026;2022-12-18T10:10:52;75.97;;;25.20;;
21392;SDS011;10857;52.228;21.026;2022-12-18T10:13:26;78.53;;;28.83;;
21392;SDS011;10857;52.228;21.026;2022-12-18T10:21:30;88.40;;;30.43;;
21392;SDS011;10857;52.228;21.026;2022-12-18T10:26:26;92.07;;;35.17;;
21392;SDS011;10857;52.228;21.026;2022-12-18T10:28:53;92.33;;;33.97;;
21392;SDS011;10857;52.228;21.026;2022-12-18T10:31:31;86.00;;;30.03;;
21392;SDS011;10857;52.228;21.026;2022-12-18T10:33:58;79.83;;;28.00;;
21392;SDS011;10857;52.228;21.026;2022-12-18T10:36:25;93.10;;;31.10;;
21392;SDS011;10857;52.228;21.026;2022-12-18T10:38:53;93.13;;;30.03;;
21392;SDS011;10857;52.228;21.026;2022-12-18T10:44:12;83.90;;;30.40;;
21392;SDS011;10857;52.228;21.026;2022-12-18T10:46:40;81.37;;;29.60;;
21392;SDS011;10857;52.228;21.026;2022-12-18T10:49:18;81.37;;;29.53;;
21392;SDS011;10857;52.228;21.026;2022-12-18T10:51:45;81.17;;;27.27;;
21392;SDS011;10857;52.228;21.026;2022-12-18T10:54:21;74.27;;;28.00;;
21392;SDS011;10857;52.228;21.026;2022-12-18T10:56:49;76.33;;;26.90;;
21392;SDS011;10857;52.228;21.026;2022-12-18T10:59:17;80.33;;;27.67;;
21392;SDS011;10857;52.228;21.026;2022-12-18T11:01:52;81.27;;;30.23;;
21392;SDS011;10857;52.228;21.026;2022-12-18T11:07:00;86.83;;;30.57;;
21392;SDS011;10857;52.228;21.026;2022-12-18T11:09:30;91.97;;;31.90;;
21392;SDS011;10857;52.228;21.026;2022-12-18T11:12:19;94.10;;;30.53;;
21392;SDS011;10857;52.228;21.026;2022-12-18T11:14:53;90.57;;;31.60;;
21392;SDS011;10857;52.228;21.026;2022-12-18T11:19:57;83.30;;;30.90;;
21392;SDS011;10857;52.228;21.026;2022-12-18T11:22:26;87.87;;;29.63;;
21392;SDS011;10857;52.228;21.026;2022-12-18T11:27:51;92.83;;;29.53;;
21392;SDS011;10857;52.228;21.026;2022-12-18T11:30:21;91.53;;;30.10;;
21392;SDS011;10857;52.228;21.026;2022-12-18T11:32:49;90.50;;;30.43;;
21392;SDS011;10857;52.228;21.026;2022-12-18T11:35:19;93.00;;;28.73;;
21392;SDS011;10857;52.228;21.026;2022-12-18T11:37:49;89.83;;;30.27;;
21392;SDS011;10857;52.228;21.026;2022-12-18T11:40:18;87.03;;;29.57;;
21392;SDS011;10857;52.228;21.026;2022-12-18T11:45:40;85.07;;;28.83;;
21392;SDS011;10857;52.228;21.026;2022-12-18T11:50:49;81.00;;;26.63;;
21392;SDS011;10857;52.228;21.026;2022-12-18T11:53:17;86.40;;;28.97;;
21392;SDS011;10857;52.228;21.026;2022-12-18T12:04:20;86.93;;;28.77;;
21392;SDS011;10857;52.228;21.026;2022-12-18T12:17:17;88.83;;;31.17;;
21392;SDS011;10857;52.228;21.026;2022-12-18T12:22:37;83.93;;;29.17;;
21392;SDS011;10857;52.228;21.026;2022-12-18T12:27:59;85.17;;;29.83;;
21392;SDS011;10857;52.228;21.026;2022-12-18T12:30:32;86.77;;;29.03;;
21392;SDS011;10857;52.228;21.026;2022-12-18T12:33:05;85.20;;;28.60;;
21392;SDS011;10857;52.228;21.026;2022-12-18T12:35:38;83.60;;;28.83;;
21392;SDS011;10857;52.228;21.026;2022-12-18T12:40:51;89.60;;;30.53;;
21392;SDS011;10857;52.228;21.026;2022-12-18T12:45:57;87.60;;;31.07;;
21392;SDS011;10857;52.228;21.026;2022-12-18T12:48:37;81.33;;;27.57;;
21392;SDS011;10857;52.228;21.026;2022-12-18T12:51:12;92.27;;;29.73;;
21392;SDS011;10857;52.228;21.026;2022-12-18T12:53:42;84.47;;;28.97;;
21392;SDS011;10857;52.228;21.026;2022-12-18T12:56:11;92.30;;;30.87;;
21392;SDS011;10857;52.228;21.026;2022-12-18T13:01:22;81.30;;;27.97;;
21392;SDS011;10857;52.228;21.026;2022-12-18T13:03:57;89.73;;;30.87;;
21392;SDS011;10857;52.228;21.026;2022-12-18T13:06:40;90.20;;;30.63;;
21392;SDS011;10857;52.228;21.026;2022-12-18T13:09:11;95.87;;;32.67;;
21392;SDS011;10857;52.228;21.026;2022-12-18T13:11:45;99.73;;;32.00;;
21392;SDS011;10857;52.228;21.026;2022-12-18T13:17:15;95.43;;;32.07;;
21392;SDS011;10857;52.228;21.026;2022-12-18T13:19:43;86.53;;;30.87;;
21392;SDS011;10857;52.228;21.026;2022-12-18T13:22:24;95.20;;;32.63;;
21392;SDS011;10857;52.228;21.026;2022-12-18T13:24:55;93.53;;;31.10;;
21392;SDS011;10857;52.228;21.026;2022-12-18T13:40:59;88.00;;;29.77;;
21392;SDS011;10857;52.228;21.026;2022-12-18T13:48:29;98.77;;;32.50;;
21392;SDS011;10857;52.228;21.026;2022-12-18T13:53:27;81.93;;;27.87;;
21392;SDS011;10857;52.228;21.026;2022-12-18T13:55:55;88.77;;;29.93;;
21392;SDS011;10857;52.228;21.026;2022-12-18T13:58:22;86.63;;;31.63;;
21392;SDS011;10857;52.228;21.026;2022-12-18T14:00:50;86.77;;;31.47;;
21392;SDS011;10857;52.228;21.026;2022-12-18T14:03:18;89.07;;;30.50;;
21392;SDS011;10857;52.228;21.026;2022-12-18T14:05:54;89.57;;;29.33;;
21392;SDS011;10857;52.228;21.026;2022-12-18T14:08:23;86.73;;;32.03;;
21392;SDS011;10857;52.228;21.026;2022-12-18T14:10:52;106.38;;;45.20;;
21392;SDS011;10857;52.228;21.026;2022-12-18T14:13:27;106.37;;;36.97;;
21392;SDS011;10857;52.228;21.026;2022-12-18T14:15:56;89.57;;;32.20;;
21392;SDS011;10857;52.228;21.026;2022-12-18T14:18:36;90.23;;;30.30;;
21392;SDS011;10857;52.228;21.026;2022-12-18T14:21:06;83.37;;;30.10;;
21392;SDS011;10857;52.228;21.026;2022-12-18T14:23:35;81.33;;;28.27;;
21392;SDS011;10857;52.228;21.026;2022-12-18T14:28:50;85.93;;;29.57;;
21392;SDS011;10857;52.228;21.026;2022-12-18T14:31:21;85.77;;;29.00;;
21392;SDS011;10857;52.228;21.026;2022-12-18T14:33:48;87.33;;;30.17;;
21392;SDS011;10857;52.228;21.026;2022-12-18T14:39:04;89.73;;;30.90;;
21392;SDS011;10857;52.228;21.026;2022-12-18T14:41:31;86.63;;;30.13;;
21392;SDS011;10857;52.228;21.026;2022-12-18T14:44:04;82.57;;;30.50;;
21392;SDS011;10857;52.228;21.026;2022-12-18T14:46:43;86.87;;;30.83;;
21392;SDS011;10857;52.228;21.026;2022-12-18T14:51:52;93.87;;;31.00;;
21392;SDS011;10857;52.228;21.026;2022-12-18T14:54:21;93.30;;;32.33;;
21392;SDS011;10857;52.228;21.026;2022-12-18T14:57:02;92.13;;;32.30;;
21392;SDS011;10857;52.228;21.026;2022-12-18T14:59:30;96.47;;;31.97;;
21392;SDS011;10857;52.228;21.026;2022-12-18T15:04:33;93.50;;;32.23;;
21392;SDS011;10857;52.228;21.026;2022-12-18T15:07:12;94.67;;;32.73;;
21392;SDS011;10857;52.228;21.026;2022-12-18T15:09:41;103.93;;;33.93;;
21392;SDS011;10857;52.228;21.026;2022-12-18T15:12:24;98.73;;;33.10;;
21392;SDS011;10857;52.228;21.026;2022-12-18T15:14:52;102.83;;;31.90;;
21392;SDS011;10857;52.228;21.026;2022-12-18T15:17:23;87.43;;;30.77;;
21392;SDS011;10857;52.228;21.026;2022-12-18T15:19:53;87.43;;;32.37;;
21392;SDS011;10857;52.228;21.026;2022-12-18T15:22:29;87.00;;;28.80;;
21392;SDS011;10857;52.228;21.026;2022-12-18T15:24:57;84.23;;;30.37;;
21392;SDS011;10857;52.228;21.026;2022-12-18T15:27:29;78.87;;;30.30;;
21392;SDS011;10857;52.228;21.026;2022-12-18T15:32:37;79.37;;;28.57;;
21392;SDS011;10857;52.228;21.026;2022-12-18T15:37:58;84.23;;;29.17;;
21392;SDS011;10857;52.228;21.026;2022-12-18T15:40:26;78.90;;;29.17;;
21392;SDS011;10857;52.228;21.026;2022-12-18T15:42:53;85.50;;;39.85;;
21392;SDS011;10857;52.228;21.026;2022-12-18T15:45:39;86.60;;;32.07;;
21392;SDS011;10857;52.228;21.026;2022-12-18T15:51:04;75.87;;;27.57;;
21392;SDS011;10857;52.228;21.026;2022-12-18T15:53:32;74.13;;;26.80;;
21392;SDS011;10857;52.228;21.026;2022-12-18T15:56:00;76.80;;;27.30;;
21392;SDS011;10857;52.228;21.026;2022-12-18T15:58:46;71.67;;;27.60;;
21392;SDS011;10857;52.228;21.026;2022-12-18T16:01:14;74.70;;;26.80;;
21392;SDS011;10857;52.228;21.026;2022-12-18T16:03:42;121.07;;;41.10;;
21392;SDS011;10857;52.228;21.026;2022-12-18T16:06:10;76.37;;;28.40;;
21392;SDS011;10857;52.228;21.026;2022-12-18T16:08:38;77.03;;;29.00;;
21392;SDS011;10857;52.228;21.026;2022-12-18T16:11:10;74.73;;;27.47;;
21392;SDS011;10857;52.228;21.026;2022-12-18T16:13:45;78.35;;;36.88;;
21392;SDS011;10857;52.228;21.026;2022-12-18T16:16:12;79.70;;;29.50;;
21392;SDS011;10857;52.228;21.026;2022-12-18T16:18:39;71.27;;;27.37;;
21392;SDS011;10857;52.228;21.026;2022-12-18T16:21:07;71.23;;;27.13;;
21392;SDS011;10857;52.228;21.026;2022-12-18T16:23:36;65.40;;;24.03;;
21392;SDS011;10857;52.228;21.026;2022-12-18T16:26:04;66.07;;;25.43;;
21392;SDS011;10857;52.228;21.026;2022-12-18T16:28:32;70.70;;;26.17;;
21392;SDS011;10857;52.228;21.026;2022-12-18T16:30:59;64.93;;;24.90;;
21392;SDS011;10857;52.228;21.026;2022-12-18T16:33:26;64.17;;;24.27;;
21392;SDS011;10857;52.228;21.026;2022-12-18T16:35:54;65.90;;;25.90;;
21392;SDS011;10857;52.228;21.026;2022-12-18T16:38:21;63.57;;;24.07;;
21392;SDS011;10857;52.228;21.026;2022-12-18T16:40:48;64.50;;;25.10;;
21392;SDS011;10857;52.228;21.026;2022-12-18T16:43:34;66.27;;;25.23;;
21392;SDS011;10857;52.228;21.026;2022-12-18T16:46:02;66.93;;;26.13;;
21392;SDS011;10857;52.228;21.026;2022-12-18T16:48:29;65.07;;;24.07;;
21392;SDS011;10857;52.228;21.026;2022-12-18T16:51:00;64.57;;;24.60;;
21392;SDS011;10857;52.228;21.026;2022-12-18T16:53:28;68.73;;;26.33;;
21392;SDS011;10857;52.228;21.026;2022-12-18T16:55:57;67.10;;;25.50;;
21392;SDS011;10857;52.228;21.026;2022-12-18T16:58:24;72.40;;;26.10;;
21392;SDS011;10857;52.228;21.026;2022-12-18T17:00:51;70.17;;;25.80;;
21392;SDS011;10857;52.228;21.026;2022-12-18T17:03:19;65.83;;;25.47;;
21392;SDS011;10857;52.228;21.026;2022-12-18T17:05:46;66.27;;;24.37;;
21392;SDS011;10857;52.228;21.026;2022-12-18T17:08:18;64.70;;;24.10;;
21392;SDS011;10857;52.228;21.026;2022-12-18T17:10:46;66.00;;;23.93;;
21392;SDS011;10857;52.228;21.026;2022-12-18T17:13:13;64.43;;;23.10;;
21392;SDS011;10857;52.228;21.026;2022-12-18T17:15:41;64.57;;;22.93;;
21392;SDS011;10857;52.228;21.026;2022-12-18T17:18:08;65.23;;;23.80;;
21392;SDS011;10857;52.228;21.026;2022-12-18T17:20:37;68.67;;;24.93;;
21392;SDS011;10857;52.228;21.026;2022-12-18T17:23:05;67.30;;;26.23;;
21392;SDS011;10857;52.228;21.026;2022-12-18T17:25:32;71.57;;;26.07;;
21392;SDS011;10857;52.228;21.026;2022-12-18T17:28:00;69.20;;;26.17;;
21392;SDS011;10857;52.228;21.026;2022-12-18T17:30:28;71.20;;;26.10;;
21392;SDS011;10857;52.228;21.026;2022-12-18T17:32:55;71.93;;;27.33;;
21392;SDS011;10857;52.228;21.026;2022-12-18T17:35:23;74.43;;;26.70;;
21392;SDS011;10857;52.228;21.026;2022-12-18T17:37:50;68.37;;;27.40;;
21392;SDS011;10857;52.228;21.026;2022-12-18T17:40:18;78.87;;;28.43;;
21392;SDS011;10857;52.228;21.026;2022-12-18T17:42:45;67.83;;;26.47;;
21392;SDS011;10857;52.228;21.026;2022-12-18T17:45:13;69.37;;;27.80;;
21392;SDS011;10857;52.228;21.026;2022-12-18T17:47:40;72.77;;;27.60;;
21392;SDS011;10857;52.228;21.026;2022-12-18T17:50:08;74.07;;;26.37;;
21392;SDS011;10857;52.228;21.026;2022-12-18T17:52:35;66.07;;;26.03;;
21392;SDS011;10857;52.228;21.026;2022-12-18T17:55:03;68.10;;;25.53;;
21392;SDS011;10857;52.228;21.026;2022-12-18T17:57:30;74.83;;;26.90;;
21392;SDS011;10857;52.228;21.026;2022-12-18T17:59:58;70.83;;;27.33;;
21392;SDS011;10857;52.228;21.026;2022-12-18T18:02:26;74.70;;;27.43;;
21392;SDS011;10857;52.228;21.026;2022-12-18T18:04:53;72.43;;;27.40;;
21392;SDS011;10857;52.228;21.026;2022-12-18T18:07:23;70.47;;;26.53;;
21392;SDS011;10857;52.228;21.026;2022-12-18T18:09:52;73.07;;;26.17;;
21392;SDS011;10857;52.228;21.026;2022-12-18T18:12:22;69.43;;;26.53;;
21392;SDS011;10857;52.228;21.026;2022-12-18T18:15:08;74.23;;;26.80;;
21392;SDS011;10857;52.228;21.026;2022-12-18T18:17:36;80.05;;;38.08;;
21392;SDS011;10857;52.228;21.026;2022-12-18T18:20:03;77.13;;;30.70;;
21392;SDS011;10857;52.228;21.026;2022-12-18T18:22:32;69.73;;;27.30;;
21392;SDS011;10857;52.228;21.026;2022-12-18T18:24:59;69.33;;;26.43;;
21392;SDS011;10857;52.228;21.026;2022-12-18T18:27:29;66.10;;;25.97;;
21392;SDS011;10857;52.228;21.026;2022-12-18T18:30:03;61.93;;;23.87;;
21392;SDS011;10857;52.228;21.026;2022-12-18T18:32:31;60.90;;;23.43;;
21392;SDS011;10857;52.228;21.026;2022-12-18T18:34:59;65.70;;;24.23;;
21392;SDS011;10857;52.228;21.026;2022-12-18T18:37:26;65.77;;;23.80;;
21392;SDS011;10857;52.228;21.026;2022-12-18T18:39:53;67.67;;;25.90;;
21392;SDS011;10857;52.228;21.026;2022-12-18T18:42:22;67.83;;;25.43;;
21392;SDS011;10857;52.228;21.026;2022-12-18T18:44:49;68.47;;;26.33;;
21392;SDS011;10857;52.228;21.026;2022-12-18T18:47:16;69.83;;;25.50;;
21392;SDS011;10857;52.228;21.026;2022-12-18T18:49:44;74.27;;;27.00;;
21392;SDS011;10857;52.228;21.026;2022-12-18T18:52:11;72.43;;;27.60;;
21392;SDS011;10857;52.228;21.026;2022-12-18T18:54:39;72.90;;;28.33;;
21392;SDS011;10857;52.228;21.026;2022-12-18T18:57:26;79.43;;;28.30;;
21392;SDS011;10857;52.228;21.026;2022-12-18T18:59:55;74.40;;;27.70;;
21392;SDS011;10857;52.228;21.026;2022-12-18T19:02:23;84.40;;;30.23;;
21392;SDS011;10857;52.228;21.026;2022-12-18T19:04:51;77.07;;;28.87;;
21392;SDS011;10857;52.228;21.026;2022-12-18T19:07:18;76.43;;;26.53;;
21392;SDS011;10857;52.228;21.026;2022-12-18T19:09:56;70.43;;;25.07;;
21392;SDS011;10857;52.228;21.026;2022-12-18T19:12:29;71.57;;;25.57;;
21392;SDS011;10857;52.228;21.026;2022-12-18T19:15:15;66.77;;;22.67;;
21392;SDS011;10857;52.228;21.026;2022-12-18T19:17:43;67.93;;;24.13;;
21392;SDS011;10857;52.228;21.026;2022-12-18T19:20:12;72.23;;;25.33;;
21392;SDS011;10857;52.228;21.026;2022-12-18T19:22:40;71.93;;;25.23;;
21392;SDS011;10857;52.228;21.026;2022-12-18T19:25:08;70.40;;;26.23;;
21392;SDS011;10857;52.228;21.026;2022-12-18T19:27:36;69.47;;;25.50;;
21392;SDS011;10857;52.228;21.026;2022-12-18T19:30:05;71.17;;;25.17;;
21392;SDS011;10857;52.228;21.026;2022-12-18T19:32:33;69.63;;;24.23;;
21392;SDS011;10857;52.228;21.026;2022-12-18T19:35:00;68.33;;;24.20;;
21392;SDS011;10857;52.228;21.026;2022-12-18T19:37:29;68.27;;;24.33;;
21392;SDS011;10857;52.228;21.026;2022-12-18T19:39:56;68.10;;;24.60;;
21392;SDS011;10857;52.228;21.026;2022-12-18T19:42:25;78.30;;;26.13;;
21392;SDS011;10857;52.228;21.026;2022-12-18T19:45:00;72.53;;;25.17;;
21392;SDS011;10857;52.228;21.026;2022-12-18T19:47:28;75.37;;;25.17;;
21392;SDS011;10857;52.228;21.026;2022-12-18T19:49:55;67.33;;;24.83;;
21392;SDS011;10857;52.228;21.026;2022-12-18T19:52:23;66.60;;;22.90;;
21392;SDS011;10857;52.228;21.026;2022-12-18T19:54:50;65.80;;;21.50;;
21392;SDS011;10857;52.228;21.026;2022-12-18T19:57:18;60.23;;;22.47;;
21392;SDS011;10857;52.228;21.026;2022-12-18T19:59:46;62.83;;;23.27;;
21392;SDS011;10857;52.228;21.026;2022-12-18T20:02:14;62.20;;;22.33;;
21392;SDS011;10857;52.228;21.026;2022-12-18T20:04:41;61.83;;;22.33;;
21392;SDS011;10857;52.228;21.026;2022-12-18T20:07:09;64.07;;;22.47;;
21392;SDS011;10857;52.228;21.026;2022-12-18T20:09:36;64.53;;;21.67;;
21392;SDS011;10857;52.228;21.026;2022-12-18T20:12:04;62.53;;;21.13;;
21392;SDS011;10857;52.228;21.026;2022-12-18T20:14:32;52.03;;;19.07;;
21392;SDS011;10857;52.228;21.026;2022-12-18T20:16:59;55.00;;;19.60;;
21392;SDS011;10857;52.228;21.026;2022-12-18T20:19:27;47.67;;;17.67;;
21392;SDS011;10857;52.228;21.026;2022-12-18T20:21:55;53.53;;;18.97;;
21392;SDS011;10857;52.228;21.026;2022-12-18T20:24:22;54.73;;;19.10;;
21392;SDS011;10857;52.228;21.026;2022-12-18T20:26:50;49.27;;;17.67;;
21392;SDS011;10857;52.228;21.026;2022-12-18T20:29:17;57.80;;;19.27;;
21392;SDS011;10857;52.228;21.026;2022-12-18T20:31:44;49.13;;;18.40;;
21392;SDS011;10857;52.228;21.026;2022-12-18T20:34:12;50.80;;;18.20;;
21392;SDS011;10857;52.228;21.026;2022-12-18T20:36:40;51.17;;;19.50;;
21392;SDS011;10857;52.228;21.026;2022-12-18T20:39:08;54.97;;;19.10;;
21392;SDS011;10857;52.228;21.026;2022-12-18T20:41:37;54.47;;;18.97;;
21392;SDS011;10857;52.228;21.026;2022-12-18T20:44:06;46.90;;;17.73;;
21392;SDS011;10857;52.228;21.026;2022-12-18T20:46:47;50.80;;;19.10;;
21392;SDS011;10857;52.228;21.026;2022-12-18T20:49:15;49.63;;;18.97;;
21392;SDS011;10857;52.228;21.026;2022-12-18T20:51:42;51.27;;;19.43;;
21392;SDS011;10857;52.228;21.026;2022-12-18T20:54:09;54.17;;;19.37;;
21392;SDS011;10857;52.228;21.026;2022-12-18T20:56:37;51.53;;;18.57;;
21392;SDS011;10857;52.228;21.026;2022-12-18T20:59:04;48.70;;;17.90;;
21392;SDS011;10857;52.228;21.026;2022-12-18T21:01:32;53.33;;;19.30;;
21392;SDS011;10857;52.228;21.026;2022-12-18T21:04:01;51.67;;;19.17;;
21392;SDS011;10857;52.228;21.026;2022-12-18T21:06:28;55.43;;;20.53;;
21392;SDS011;10857;52.228;21.026;2022-12-18T21:08:56;52.97;;;19.43;;
21392;SDS011;10857;52.228;21.026;2022-12-18T21:11:28;53.37;;;19.10;;
21392;SDS011;10857;52.228;21.026;2022-12-18T21:14:16;53.40;;;17.93;;
21392;SDS011;10857;52.228;21.026;2022-12-18T21:16:44;55.57;;;19.10;;
21392;SDS011;10857;52.228;21.026;2022-12-18T21:19:12;53.37;;;19.60;;
21392;SDS011;10857;52.228;21.026;2022-12-18T21:21:39;52.87;;;19.70;;
21392;SDS011;10857;52.228;21.026;2022-12-18T21:24:08;48.47;;;17.80;;
21392;SDS011;10857;52.228;21.026;2022-12-18T21:26:36;48.57;;;18.83;;
21392;SDS011;10857;52.228;21.026;2022-12-18T21:29:11;47.50;;;17.90;;
21392;SDS011;10857;52.228;21.026;2022-12-18T21:31:39;49.83;;;17.97;;
21392;SDS011;10857;52.228;21.026;2022-12-18T21:34:07;52.33;;;17.67;;
21392;SDS011;10857;52.228;21.026;2022-12-18T21:36:36;57.50;;;19.90;;
21392;SDS011;10857;52.228;21.026;2022-12-18T21:39:03;49.00;;;18.57;;
21392;SDS011;10857;52.228;21.026;2022-12-18T21:41:31;50.47;;;19.63;;
21392;SDS011;10857;52.228;21.026;2022-12-18T21:44:19;50.83;;;18.77;;
21392;SDS011;10857;52.228;21.026;2022-12-18T21:46:47;54.17;;;20.03;;
21392;SDS011;10857;52.228;21.026;2022-12-18T21:49:23;53.47;;;19.90;;
21392;SDS011;10857;52.228;21.026;2022-12-18T21:51:52;54.20;;;20.03;;
21392;SDS011;10857;52.228;21.026;2022-12-18T21:54:19;54.83;;;20.40;;
21392;SDS011;10857;52.228;21.026;2022-12-18T21:56:51;57.37;;;20.90;;
21392;SDS011;10857;52.228;21.026;2022-12-18T21:59:22;53.57;;;21.13;;
21392;SDS011;10857;52.228;21.026;2022-12-18T22:01:50;59.70;;;21.23;;
21392;SDS011;10857;52.228;21.026;2022-12-18T22:04:18;54.70;;;20.10;;
21392;SDS011;10857;52.228;21.026;2022-12-18T22:06:47;57.47;;;20.23;;
21392;SDS011;10857;52.228;21.026;2022-12-18T22:09:15;53.13;;;20.43;;
21392;SDS011;10857;52.228;21.026;2022-12-18T22:11:43;53.17;;;19.90;;
21392;SDS011;10857;52.228;21.026;2022-12-18T22:14:10;54.93;;;19.67;;
21392;SDS011;10857;52.228;21.026;2022-12-18T22:16:39;53.53;;;20.57;;
21392;SDS011;10857;52.228;21.026;2022-12-18T22:19:08;61.63;;;22.30;;
21392;SDS011;10857;52.228;21.026;2022-12-18T22:21:36;62.97;;;21.93;;
